createdAt,value
2022-12-24T00:01:36.571Z,204.50
2022-12-24T00:04:05.223Z,191.33
2022-12-24T00:06:33.382Z,189.70
2022-12-24T00:09:03.038Z,183.47
2022-12-24T00:11:31.273Z,192.67
2022-12-24T00:13:59.304Z,195.90
2022-12-24T00:16:27.504Z,179.57
2022-12-24T00:18:55.812Z,179.80
2022-12-24T00:21:23.894Z,206.93
2022-12-24T00:23:52.064Z,211.10
2022-12-24T00:26:21.556Z,196.70
2022-12-24T00:28:49.654Z,172.57
2022-12-24T00:31:20.315Z,159.37
2022-12-24T00:33:48.833Z,144.13
2022-12-24T00:36:17.507Z,161.77
2022-12-24T00:38:45.863Z,147.33
2022-12-24T00:41:25.994Z,156.43
2022-12-24T00:43:59.447Z,163.20
2022-12-24T00:46:29.792Z,169.43
2022-12-24T00:48:58.381Z,182.93
2022-12-24T00:51:27.076Z,163.60
2022-12-24T00:53:55.672Z,159.90
2022-12-24T00:56:24.428Z,144.73
2022-12-24T00:58:53.014Z,147.73
2022-12-24T01:01:23.103Z,140.83
2022-12-24T01:03:52.307Z,135.27
2022-12-24T01:06:21.539Z,141.03
2022-12-24T01:08:51.946Z,149.53
2022-12-24T01:11:20.763Z,146.40
2022-12-24T01:13:48.947Z,143.60
2022-12-24T01:16:18.920Z,134.27
2022-12-24T01:18:48.704Z,163.77
2022-12-24T01:21:17.220Z,144.43
2022-12-24T01:23:45.376Z,148.03
2022-12-24T01:26:13.465Z,146.63
2022-12-24T01:28:41.708Z,166.60
2022-12-24T01:31:15.382Z,151.90
2022-12-24T01:33:44.745Z,151.57
2022-12-24T01:36:15.404Z,155.33
2022-12-24T01:38:43.819Z,147.17
2022-12-24T01:41:35.164Z,118.37
2022-12-24T01:44:33.098Z,130.67
2022-12-24T01:47:09.607Z,126.47
2022-12-24T01:49:40.551Z,104.20
2022-12-24T01:52:14.252Z,104.37
2022-12-24T01:54:49.240Z,107.10
2022-12-24T01:57:22.355Z,120.63
2022-12-24T01:59:54.861Z,126.67
2022-12-24T02:02:23.672Z,140.23
2022-12-24T02:04:57.232Z,142.40
2022-12-24T02:07:26.998Z,126.93
2022-12-24T02:09:58.611Z,135.40
2022-12-24T02:12:28.379Z,147.27
2022-12-24T02:14:56.943Z,162.20
2022-12-24T02:17:31.651Z,153.60
2022-12-24T02:20:27.636Z,156.70
2022-12-24T02:23:18.702Z,149.50
2022-12-24T02:26:15.188Z,140.10
2022-12-24T02:29:05.813Z,155.83
2022-12-24T02:31:42.589Z,150.90
2022-12-24T02:34:19.898Z,148.27
2022-12-24T02:36:54.839Z,147.03
2022-12-24T02:39:29.681Z,137.27
2022-12-24T02:42:09.357Z,159.77
2022-12-24T02:44:44.906Z,143.57
2022-12-24T02:47:15.881Z,140.07
2022-12-24T02:49:46.183Z,132.90
2022-12-24T02:52:30.306Z,175.73
2022-12-24T02:55:02.446Z,171.23
2022-12-24T02:57:40.478Z,170.10
2022-12-24T03:00:10.483Z,160.83
2022-12-24T03:02:55.688Z,160.53
2022-12-24T03:05:32.397Z,158.67
2022-12-24T03:08:07.030Z,158.47
2022-12-24T03:10:43.555Z,156.50
2022-12-24T03:13:16.318Z,165.87
2022-12-24T03:15:46.355Z,165.27
2022-12-24T03:18:19.741Z,176.87
2022-12-24T03:20:54.234Z,148.80
2022-12-24T03:23:22.538Z,172.30
2022-12-24T03:25:51.046Z,177.30
2022-12-24T03:28:21.497Z,162.83
2022-12-24T03:30:49.912Z,177.83
2022-12-24T03:33:19.466Z,179.93
2022-12-24T03:35:47.631Z,169.97
2022-12-24T03:38:15.830Z,182.90
2022-12-24T03:40:43.891Z,180.43
2022-12-24T03:43:12.077Z,170.03
2022-12-24T03:45:40.378Z,171.93
2022-12-24T03:48:08.976Z,184.80
2022-12-24T03:50:38.678Z,168.37
2022-12-24T03:53:06.946Z,174.50
2022-12-24T03:55:35.074Z,171.60
2022-12-24T03:58:03.341Z,157.03
2022-12-24T04:00:31.854Z,166.40
2022-12-24T04:03:01.034Z,157.67
2022-12-24T04:05:29.214Z,168.40
2022-12-24T04:07:59.125Z,172.10
2022-12-24T04:10:31.627Z,169.90
2022-12-24T04:12:59.889Z,166.67
2022-12-24T04:15:28.154Z,157.17
2022-12-24T04:17:57.308Z,146.50
2022-12-24T04:20:25.725Z,137.87
2022-12-24T04:22:54.546Z,150.47
2022-12-24T04:25:24.272Z,166.27
2022-12-24T04:27:52.413Z,155.93
2022-12-24T04:30:20.790Z,154.80
2022-12-24T04:32:48.813Z,157.27
2022-12-24T04:35:17.199Z,151.40
2022-12-24T04:37:45.327Z,146.33
2022-12-24T04:40:13.784Z,138.97
2022-12-24T04:42:43.239Z,131.07
2022-12-24T04:45:11.719Z,142.13
2022-12-24T04:47:39.887Z,136.40
2022-12-24T04:50:10.349Z,127.13
2022-12-24T04:52:38.794Z,136.17
2022-12-24T04:55:07.835Z,144.13
2022-12-24T04:57:38.135Z,149.17
2022-12-24T05:00:09.851Z,162.20
2022-12-24T05:02:38.145Z,164.97
2022-12-24T05:05:07.364Z,167.67
2022-12-24T05:07:35.647Z,173.27
2022-12-24T05:10:03.676Z,161.37
2022-12-24T05:12:31.917Z,165.37
2022-12-24T05:15:00.114Z,166.63
2022-12-24T05:17:29.621Z,161.73
2022-12-24T05:19:57.752Z,167.63
2022-12-24T05:22:43.042Z,170.53
2022-12-24T05:25:28.862Z,154.13
2022-12-24T05:27:57.409Z,163.67
2022-12-24T05:30:25.665Z,162.90
2022-12-24T05:32:55.237Z,173.90
2022-12-24T05:35:23.330Z,157.43
2022-12-24T05:37:51.479Z,151.23
2022-12-24T05:40:19.679Z,160.77
2022-12-24T05:42:47.919Z,152.97
2022-12-24T05:45:16.285Z,147.87
2022-12-24T05:47:44.250Z,122.03
2022-12-24T05:50:14.070Z,126.23
2022-12-24T05:52:42.580Z,115.43
2022-12-24T05:55:11.424Z,106.07
2022-12-24T05:57:41.559Z,87.27
2022-12-24T06:00:28.421Z,111.20
2022-12-24T06:02:56.790Z,105.30
2022-12-24T06:05:26.462Z,109.20
2022-12-24T06:07:55.009Z,116.20
2022-12-24T06:10:23.177Z,91.00
2022-12-24T06:12:51.589Z,87.47
2022-12-24T06:15:23.897Z,88.27
2022-12-24T06:17:52.509Z,93.00
2022-12-24T06:20:20.781Z,85.93
2022-12-24T06:22:50.435Z,83.27
2022-12-24T06:25:19.402Z,99.60
2022-12-24T06:27:47.737Z,130.10
2022-12-24T06:30:18.645Z,147.10
2022-12-24T06:32:47.013Z,158.63
2022-12-24T06:35:15.065Z,151.43
2022-12-24T06:37:43.221Z,180.80
2022-12-24T06:40:13.125Z,159.93
2022-12-24T06:42:41.104Z,148.90
2022-12-24T06:45:10.333Z,156.50
2022-12-24T06:47:38.480Z,173.77
2022-12-24T06:50:07.820Z,155.87
2022-12-24T06:52:36.028Z,151.30
2022-12-24T06:55:04.242Z,149.10
2022-12-24T06:57:33.797Z,160.37
2022-12-24T07:00:01.964Z,155.90
2022-12-24T07:02:30.169Z,157.47
2022-12-24T07:04:58.355Z,143.80
2022-12-24T07:07:26.533Z,116.93
2022-12-24T07:09:54.619Z,107.93
2022-12-24T07:12:22.721Z,120.30
2022-12-24T07:14:52.326Z,120.20
2022-12-24T07:17:21.884Z,130.70
2022-12-24T07:19:50.261Z,125.70
2022-12-24T07:22:18.711Z,120.83
2022-12-24T07:24:46.846Z,129.13
2022-12-24T07:27:15.014Z,121.27
2022-12-24T07:29:43.243Z,122.57
2022-12-24T07:32:12.939Z,121.43
2022-12-24T07:34:41.071Z,110.77
2022-12-24T07:37:09.469Z,94.67
2022-12-24T07:39:37.521Z,94.90
2022-12-24T07:42:08.208Z,75.57
2022-12-24T07:44:36.339Z,63.30
2022-12-24T07:47:04.636Z,61.20
2022-12-24T07:49:35.007Z,81.87
2022-12-24T07:52:03.193Z,85.63
2022-12-24T07:54:31.531Z,71.67
2022-12-24T07:56:59.715Z,78.37
2022-12-24T07:59:27.966Z,73.87
2022-12-24T08:01:56.356Z,76.50
2022-12-24T08:04:24.508Z,80.13
2022-12-24T08:06:54.075Z,67.90
2022-12-24T08:09:22.662Z,84.87
2022-12-24T08:11:52.510Z,79.20
2022-12-24T08:14:21.128Z,71.80
2022-12-24T08:16:49.326Z,69.17
2022-12-24T08:19:17.833Z,67.30
2022-12-24T08:21:46.009Z,71.37
2022-12-24T08:24:15.542Z,65.30
2022-12-24T08:26:43.617Z,66.73
2022-12-24T08:29:11.935Z,66.90
2022-12-24T08:31:40.045Z,70.23
2022-12-24T08:34:09.707Z,145.23
2022-12-24T08:36:37.808Z,80.97
2022-12-24T08:39:08.648Z,66.27
2022-12-24T08:41:38.189Z,72.87
2022-12-24T08:44:06.359Z,79.13
2022-12-24T08:46:34.449Z,76.07
2022-12-24T08:49:02.598Z,89.20
2022-12-24T08:51:30.776Z,76.90
2022-12-24T08:53:58.813Z,80.27
2022-12-24T08:56:26.900Z,74.97
2022-12-24T08:58:56.237Z,74.57
2022-12-24T09:01:24.388Z,71.27
2022-12-24T09:03:52.507Z,82.07
2022-12-24T09:06:20.666Z,77.80
2022-12-24T09:08:48.862Z,68.70
2022-12-24T09:11:19.041Z,66.97
2022-12-24T09:13:47.119Z,85.27
2022-12-24T09:16:17.266Z,75.83
2022-12-24T09:18:45.379Z,69.70
2022-12-24T09:21:15.580Z,80.40
2022-12-24T09:23:45.696Z,69.63
2022-12-24T09:26:16.052Z,55.73
2022-12-24T09:28:44.227Z,69.83
2022-12-24T09:31:13.729Z,68.07
2022-12-24T09:33:44.782Z,59.83
2022-12-24T09:36:13.128Z,59.03
2022-12-24T09:38:41.343Z,60.67
2022-12-24T09:41:14.798Z,60.70
2022-12-24T09:43:48.128Z,49.13
2022-12-24T09:46:22.141Z,53.60
2022-12-24T09:48:56.949Z,53.97
2022-12-24T09:51:31.648Z,53.93
2022-12-24T09:54:05.325Z,55.03
2022-12-24T09:56:39.893Z,61.77
2022-12-24T09:59:12.958Z,62.03
2022-12-24T10:01:41.086Z,57.13
2022-12-24T10:04:14.702Z,59.20
2022-12-24T10:06:51.315Z,71.00
2022-12-24T10:09:32.498Z,57.13
2022-12-24T10:12:10.728Z,69.60
2022-12-24T10:14:50.869Z,57.33
2022-12-24T10:17:31.613Z,53.07
2022-12-24T10:20:19.962Z,56.63
2022-12-24T10:22:57.102Z,59.90
2022-12-24T10:25:29.646Z,58.83
2022-12-24T10:28:01.906Z,54.60
2022-12-24T10:30:30.300Z,62.87
2022-12-24T10:32:58.304Z,58.77
2022-12-24T10:35:31.204Z,57.77
2022-12-24T10:37:59.309Z,62.80
2022-12-24T10:40:35.004Z,62.97
2022-12-24T10:43:03.040Z,57.37
2022-12-24T10:45:39.731Z,60.97
2022-12-24T10:48:14.284Z,62.60
2022-12-24T10:50:56.200Z,67.37
2022-12-24T10:53:30.727Z,53.67
2022-12-24T10:56:11.815Z,63.63
2022-12-24T10:58:45.392Z,63.00
2022-12-24T11:01:13.706Z,73.27
2022-12-24T11:03:42.604Z,71.27
2022-12-24T11:06:14.525Z,64.97
2022-12-24T11:08:45.163Z,54.03
2022-12-24T11:11:16.673Z,53.10
2022-12-24T11:13:46.932Z,56.40
2022-12-24T11:16:22.431Z,57.67
2022-12-24T11:18:53.060Z,54.43
2022-12-24T11:21:28.962Z,60.20
2022-12-24T11:23:59.750Z,43.07
2022-12-24T11:26:30.834Z,44.50
2022-12-24T11:29:14.269Z,47.77
2022-12-24T11:31:43.252Z,40.80
2022-12-24T11:34:26.163Z,41.20
2022-12-24T11:36:58.832Z,50.00
2022-12-24T11:39:27.495Z,52.20
2022-12-24T11:41:56.021Z,45.00
2022-12-24T11:44:28.051Z,47.73
2022-12-24T11:46:58.028Z,45.90
2022-12-24T11:49:28.410Z,52.77
2022-12-24T11:52:28.733Z,51.23
2022-12-24T11:55:15.927Z,48.83
2022-12-24T11:58:05.352Z,49.13
2022-12-24T12:00:33.484Z,57.33
2022-12-24T12:03:04.327Z,50.47
2022-12-24T12:05:34.798Z,51.07
2022-12-24T12:08:12.267Z,47.77
2022-12-24T12:10:42.736Z,51.73
2022-12-24T12:13:16.099Z,55.33
2022-12-24T12:15:48.614Z,49.73
2022-12-24T12:18:18.326Z,72.13
2022-12-24T12:20:49.035Z,173.37
2022-12-24T12:23:24.826Z,78.33
2022-12-24T12:25:56.530Z,62.93
2022-12-24T12:28:29.989Z,48.30
2022-12-24T12:31:09.086Z,52.40
2022-12-24T12:33:42.849Z,47.43
2022-12-24T12:36:13.324Z,52.97
2022-12-24T12:38:42.942Z,56.03
2022-12-24T12:41:26.278Z,43.10
2022-12-24T12:44:31.039Z,47.03
2022-12-24T12:47:14.875Z,44.17
2022-12-24T12:49:53.001Z,47.40
2022-12-24T12:52:34.941Z,41.53
2022-12-24T12:55:24.971Z,36.37
2022-12-24T12:57:59.025Z,43.50
2022-12-24T13:00:32.805Z,39.97
2022-12-24T13:03:41.763Z,48.20
2022-12-24T13:06:23.383Z,46.27
2022-12-24T13:09:33.421Z,42.37
2022-12-24T13:12:16.017Z,46.10
2022-12-24T13:15:09.345Z,44.50
2022-12-24T13:18:21.952Z,44.07
2022-12-24T13:20:51.764Z,49.20
2022-12-24T13:23:22.377Z,41.97
2022-12-24T13:25:52.566Z,40.87
2022-12-24T13:28:37.211Z,42.80
2022-12-24T13:31:31.514Z,46.33
2022-12-24T13:34:02.485Z,41.73
2022-12-24T13:37:04.632Z,42.63
2022-12-24T13:40:03.489Z,44.60
2022-12-24T13:42:53.224Z,41.50
2022-12-24T13:45:45.481Z,43.20
2022-12-24T13:48:28.442Z,46.63
2022-12-24T13:50:58.319Z,50.03
2022-12-24T13:53:32.597Z,54.37
2022-12-24T13:56:08.735Z,61.73
2022-12-24T13:58:40.125Z,61.63
2022-12-24T14:01:13.133Z,55.43
2022-12-24T14:03:45.793Z,56.77
2022-12-24T14:06:22.428Z,54.40
2022-12-24T14:08:53.867Z,55.73
2022-12-24T14:11:24.322Z,59.10
2022-12-24T14:14:15.967Z,56.63
2022-12-24T14:16:51.937Z,52.83
2022-12-24T14:19:23.632Z,50.83
2022-12-24T14:21:58.049Z,54.93
2022-12-24T14:24:29.027Z,50.47
2022-12-24T14:27:02.376Z,51.03
2022-12-24T14:29:33.610Z,52.23
2022-12-24T14:32:04.744Z,56.50
2022-12-24T14:34:33.373Z,62.87
2022-12-24T14:37:05.638Z,56.10
2022-12-24T14:39:38.817Z,56.27
2022-12-24T14:42:21.177Z,58.83
2022-12-24T14:44:57.558Z,58.37
2022-12-24T14:47:35.990Z,60.37
2022-12-24T14:50:37.589Z,55.53
2022-12-24T14:53:19.329Z,74.30
2022-12-24T14:55:50.711Z,67.57
2022-12-24T14:58:23.527Z,56.17
2022-12-24T15:00:52.715Z,57.20
2022-12-24T15:03:25.336Z,43.90
2022-12-24T15:05:55.715Z,43.17
2022-12-24T15:08:30.158Z,52.77
2022-12-24T15:11:03.105Z,70.90
2022-12-24T15:13:36.926Z,57.80
2022-12-24T15:16:06.989Z,64.83
2022-12-24T15:18:40.601Z,67.50
2022-12-24T15:21:15.550Z,66.77
2022-12-24T15:23:48.473Z,63.23
2022-12-24T15:26:23.385Z,67.17
2022-12-24T15:28:58.201Z,60.63
2022-12-24T15:31:31.706Z,61.73
2022-12-24T15:34:01.630Z,62.10
2022-12-24T15:36:33.765Z,86.37
2022-12-24T15:39:04.381Z,66.13
2022-12-24T15:41:59.477Z,75.93
2022-12-24T15:44:28.558Z,80.10
2022-12-24T15:47:01.091Z,84.47
2022-12-24T15:49:32.884Z,103.03
2022-12-24T15:52:06.939Z,90.03
2022-12-24T15:54:35.585Z,83.90
2022-12-24T15:57:15.309Z,97.37
2022-12-24T15:59:43.546Z,78.80
2022-12-24T16:02:40.530Z,92.50
2022-12-24T16:05:30.601Z,121.47
2022-12-24T16:08:09.517Z,105.60
2022-12-24T16:10:40.779Z,91.57
2022-12-24T16:13:16.045Z,92.47
2022-12-24T16:15:48.195Z,99.10
2022-12-24T16:18:24.185Z,97.60
2022-12-24T16:20:56.040Z,110.23
2022-12-24T16:23:26.577Z,105.67
2022-12-24T16:25:54.616Z,116.13
2022-12-24T16:28:23.434Z,105.20
2022-12-24T16:30:51.941Z,124.40
2022-12-24T16:33:23.159Z,126.00
2022-12-24T16:35:53.456Z,127.10
2022-12-24T16:38:21.971Z,104.97
2022-12-24T16:40:50.216Z,106.40
2022-12-24T16:43:36.077Z,96.33
2022-12-24T16:46:06.534Z,85.17
2022-12-24T16:48:38.976Z,78.83
2022-12-24T16:51:08.653Z,65.43
2022-12-24T16:53:36.734Z,58.10
2022-12-24T16:56:05.342Z,44.57
2022-12-24T16:58:33.613Z,35.80
2022-12-24T17:01:08.129Z,29.40
2022-12-24T17:03:36.991Z,28.57
2022-12-24T17:06:10.018Z,24.37
2022-12-24T17:08:38.334Z,21.17
2022-12-24T17:11:06.723Z,17.97
2022-12-24T17:13:34.904Z,18.07
2022-12-24T17:16:03.252Z,19.23
2022-12-24T17:18:31.523Z,19.47
2022-12-24T17:21:00.977Z,22.93
2022-12-24T17:23:30.832Z,17.57
2022-12-24T17:25:59.954Z,18.33
2022-12-24T17:28:28.077Z,22.73
2022-12-24T17:30:57.524Z,18.07
2022-12-24T17:33:25.829Z,15.30
2022-12-24T17:35:53.976Z,16.67
2022-12-24T17:38:22.164Z,15.03
2022-12-24T17:40:51.867Z,17.00
2022-12-24T17:43:20.052Z,18.23
2022-12-24T17:45:48.205Z,16.60
2022-12-24T17:48:16.419Z,17.50
2022-12-24T17:50:44.572Z,16.90
2022-12-24T17:53:12.766Z,18.40
2022-12-24T17:55:42.348Z,18.80
2022-12-24T17:58:14.200Z,18.40
2022-12-24T18:00:42.696Z,17.00
2022-12-24T18:03:15.269Z,14.67
2022-12-24T18:05:43.516Z,14.67
2022-12-24T18:08:11.736Z,15.90
2022-12-24T18:10:39.919Z,16.83
2022-12-24T18:13:11.453Z,16.60
2022-12-24T18:15:45.389Z,18.80
2022-12-24T18:18:13.683Z,14.33
2022-12-24T18:20:46.555Z,10.53
2022-12-24T18:23:16.148Z,15.57
2022-12-24T18:25:44.202Z,13.47
2022-12-24T18:28:12.291Z,11.97
2022-12-24T18:30:40.453Z,11.83
2022-12-24T18:33:10.013Z,10.43
2022-12-24T18:35:38.262Z,14.30
2022-12-24T18:38:06.604Z,10.13
2022-12-24T18:40:38.073Z,11.50
2022-12-24T18:43:06.272Z,11.17
2022-12-24T18:45:34.412Z,10.70
2022-12-24T18:48:02.554Z,10.63
2022-12-24T18:50:32.153Z,13.27
2022-12-24T18:53:00.311Z,9.60
2022-12-24T18:55:28.481Z,13.57
2022-12-24T18:57:56.657Z,13.50
2022-12-24T19:00:24.987Z,12.73
2022-12-24T19:02:53.159Z,11.63
2022-12-24T19:05:21.417Z,8.77
2022-12-24T19:07:51.032Z,8.47
2022-12-24T19:10:19.479Z,10.33
2022-12-24T19:12:47.759Z,9.07
2022-12-24T19:15:16.259Z,11.60
2022-12-24T19:17:44.701Z,12.30
2022-12-24T19:20:13.604Z,11.53
2022-12-24T19:22:41.782Z,12.23
2022-12-24T19:25:11.782Z,15.33
2022-12-24T19:27:39.964Z,16.10
2022-12-24T19:30:09.275Z,18.37
2022-12-24T19:32:37.432Z,20.97
2022-12-24T19:35:05.967Z,16.13
2022-12-24T19:37:34.108Z,12.90
2022-12-24T19:40:02.165Z,14.90
2022-12-24T19:42:32.578Z,17.70
2022-12-24T19:45:01.029Z,13.73
2022-12-24T19:47:29.160Z,13.20
2022-12-24T19:49:57.401Z,12.23
2022-12-24T19:52:25.552Z,14.37
2022-12-24T19:54:53.944Z,11.93
2022-12-24T19:57:22.103Z,14.07
2022-12-24T19:59:52.043Z,11.03
2022-12-24T20:02:20.372Z,11.43
2022-12-24T20:04:48.554Z,13.70
2022-12-24T20:07:16.990Z,12.97
2022-12-24T20:09:45.282Z,10.30
2022-12-24T20:12:13.441Z,9.87
2022-12-24T20:14:41.770Z,9.43
2022-12-24T20:17:11.811Z,11.70
2022-12-24T20:19:40.017Z,12.87
2022-12-24T20:22:08.249Z,11.27
2022-12-24T20:24:36.392Z,11.40
2022-12-24T20:27:04.929Z,9.33
2022-12-24T20:29:33.050Z,10.67
2022-12-24T20:32:01.290Z,7.27
2022-12-24T20:34:30.932Z,10.23
2022-12-24T20:36:59.111Z,9.93
2022-12-24T20:39:27.256Z,9.13
2022-12-24T20:41:55.718Z,11.27
2022-12-24T20:44:23.997Z,13.27
2022-12-24T20:46:52.178Z,11.73
2022-12-24T20:49:20.266Z,15.47
2022-12-24T20:51:49.814Z,12.10
2022-12-24T20:54:18.757Z,14.43
2022-12-24T20:56:46.928Z,13.50
2022-12-24T20:59:26.591Z,15.03
2022-12-24T21:01:54.848Z,14.37
2022-12-24T21:04:23.165Z,11.67
2022-12-24T21:06:52.729Z,11.10
2022-12-24T21:09:20.910Z,11.13
2022-12-24T21:12:06.778Z,10.33
2022-12-24T21:14:34.945Z,12.23
2022-12-24T21:17:03.042Z,11.20
2022-12-24T21:19:31.488Z,10.07
2022-12-24T21:22:01.139Z,11.43
2022-12-24T21:24:29.811Z,10.37
2022-12-24T21:26:57.973Z,8.43
2022-12-24T21:29:25.995Z,9.77
2022-12-24T21:31:54.219Z,9.27
2022-12-24T21:34:22.477Z,9.20
2022-12-24T21:36:50.659Z,12.07
2022-12-24T21:39:20.600Z,8.33
2022-12-24T21:41:49.100Z,7.67
2022-12-24T21:44:17.320Z,8.50
2022-12-24T21:46:45.692Z,5.90
2022-12-24T21:49:31.471Z,7.17
2022-12-24T21:52:00.416Z,5.77
2022-12-24T21:54:32.019Z,6.10
2022-12-24T21:57:19.801Z,6.77
2022-12-24T21:59:51.355Z,8.53
2022-12-24T22:02:20.906Z,5.33
2022-12-24T22:04:49.365Z,4.97
2022-12-24T22:07:42.652Z,5.73
2022-12-24T22:10:31.173Z,5.70
2022-12-24T22:13:06.290Z,5.30
2022-12-24T22:15:34.574Z,4.67
2022-12-24T22:18:02.636Z,4.37
2022-12-24T22:20:30.668Z,4.70
2022-12-24T22:22:58.754Z,4.57
2022-12-24T22:25:30.059Z,6.33
2022-12-24T22:27:58.123Z,4.53
2022-12-24T22:30:26.218Z,4.20
2022-12-24T22:32:54.405Z,5.97
2022-12-24T22:35:22.486Z,4.30
2022-12-24T22:37:54.580Z,4.67
2022-12-24T22:40:29.039Z,6.07
2022-12-24T22:42:57.354Z,4.27
2022-12-24T22:45:25.532Z,7.17
2022-12-24T22:47:53.670Z,4.33
2022-12-24T22:50:21.891Z,4.30
2022-12-24T22:52:50.180Z,5.77
2022-12-24T22:55:18.615Z,5.33
2022-12-24T22:57:48.251Z,5.83
2022-12-24T23:00:36.761Z,6.93
2022-12-24T23:03:05.030Z,6.97
2022-12-24T23:05:33.347Z,7.27
2022-12-24T23:08:01.447Z,6.53
2022-12-24T23:10:29.683Z,7.10
2022-12-24T23:13:16.987Z,5.73
2022-12-24T23:15:45.381Z,8.20
2022-12-24T23:18:13.974Z,8.03
2022-12-24T23:20:46.534Z,7.27
2022-12-24T23:23:15.602Z,6.20
2022-12-24T23:25:43.772Z,5.40
2022-12-24T23:28:13.340Z,6.20
2022-12-24T23:30:41.405Z,6.40
2022-12-24T23:33:09.571Z,6.70
2022-12-24T23:35:37.796Z,5.77
2022-12-24T23:38:05.863Z,6.13
2022-12-24T23:40:33.809Z,8.47
2022-12-24T23:43:01.912Z,5.67
2022-12-24T23:45:31.354Z,12.60
2022-12-24T23:47:59.398Z,7.70
2022-12-24T23:50:27.581Z,4.07
2022-12-24T23:52:55.722Z,4.70
2022-12-24T23:55:24.001Z,4.37
2022-12-24T23:57:52.110Z,5.93
